sensor_id;sensor_type;location;lat;lon;timestamp;pressure;altitude;pressure_sealevel;temperature;humidity
18275;BME280;19470;49.322;7.218;2023-04-25T00:00:54;98113.19;;;12.58;100.00
18275;BME280;19470;49.322;7.218;2023-04-25T00:03:21;98113.72;;;12.45;100.00
18275;BME280;19470;49.322;7.218;2023-04-25T00:05:51;98114.78;;;12.18;100.00
18275;BME280;19470;49.322;7.218;2023-04-25T00:08:18;98112.66;;;12.25;100.00
18275;BME280;19470;49.322;7.218;2023-04-25T00:10:44;98117.94;;;12.56;100.00
18275;BME280;19470;49.322;7.218;2023-04-25T00:13:14;98107.09;;;12.01;100.00
18275;BME280;19470;49.322;7.218;2023-04-25T00:15:45;98106.28;;;12.32;100.00
18275;BME280;19470;49.322;7.218;2023-04-25T00:18:13;98100.97;;;12.57;100.00
18275;BME280;19470;49.322;7.218;2023-04-25T00:20:40;98103.56;;;12.77;100.00
18275;BME280;19470;49.322;7.218;2023-04-25T00:23:13;98098.88;;;12.23;100.00
18275;BME280;19470;49.322;7.218;2023-04-25T00:25:42;98095.09;;;12.70;100.00
18275;BME280;19470;49.322;7.218;2023-04-25T00:28:09;98096.13;;;12.74;100.00
18275;BME280;19470;49.322;7.218;2023-04-25T00:30:35;98100.81;;;13.23;100.00
18275;BME280;19470;49.322;7.218;2023-04-25T00:33:02;98097.25;;;12.53;100.00
18275;BME280;19470;49.322;7.218;2023-04-25T00:35:29;98099.91;;;12.58;100.00
18275;BME280;19470;49.322;7.218;2023-04-25T00:37:55;98096.56;;;13.07;100.00
18275;BME280;19470;49.322;7.218;2023-04-25T00:40:23;98095.53;;;13.08;100.00
18275;BME280;19470;49.322;7.218;2023-04-25T00:42:51;98092.25;;;13.32;100.00
18275;BME280;19470;49.322;7.218;2023-04-25T00:45:18;98086.66;;;13.33;100.00
18275;BME280;19470;49.322;7.218;2023-04-25T00:47:45;98086.88;;;13.42;100.00
18275;BME280;19470;49.322;7.218;2023-04-25T00:50:13;98094.03;;;13.46;100.00
18275;BME280;19470;49.322;7.218;2023-04-25T00:52:41;98088.09;;;13.60;100.00
18275;BME280;19470;49.322;7.218;2023-04-25T00:55:09;98085.16;;;13.66;100.00
18275;BME280;19470;49.322;7.218;2023-04-25T00:57:38;98082.63;;;13.41;100.00
18275;BME280;19470;49.322;7.218;2023-04-25T01:00:06;98085.88;;;13.17;100.00
18275;BME280;19470;49.322;7.218;2023-04-25T01:02:35;98081.22;;;12.84;100.00
18275;BME280;19470;49.322;7.218;2023-04-25T01:05:02;98083.56;;;13.05;100.00
18275;BME280;19470;49.322;7.218;2023-04-25T01:07:29;98086.72;;;13.13;100.00
18275;BME280;19470;49.322;7.218;2023-04-25T01:09:55;98083.69;;;12.54;100.00
18275;BME280;19470;49.322;7.218;2023-04-25T01:12:22;98077.03;;;12.67;100.00
18275;BME280;19470;49.322;7.218;2023-04-25T01:14:50;98086.66;;;12.43;100.00
18275;BME280;19470;49.322;7.218;2023-04-25T01:17:18;98081.56;;;12.67;100.00
18275;BME280;19470;49.322;7.218;2023-04-25T01:19:44;98078.09;;;12.56;100.00
18275;BME280;19470;49.322;7.218;2023-04-25T01:22:15;98083.25;;;13.72;100.00
18275;BME280;19470;49.322;7.218;2023-04-25T01:24:42;98082.19;;;13.23;100.00
18275;BME280;19470;49.322;7.218;2023-04-25T01:27:09;98076.97;;;12.88;100.00
18275;BME280;19470;49.322;7.218;2023-04-25T01:29:36;98084.47;;;12.75;100.00
18275;BME280;19470;49.322;7.218;2023-04-25T01:32:04;98081.66;;;13.16;100.00
18275;BME280;19470;49.322;7.218;2023-04-25T01:34:31;98082.41;;;13.32;100.00
18275;BME280;19470;49.322;7.218;2023-04-25T01:36:59;98073.06;;;13.40;100.00
18275;BME280;19470;49.322;7.218;2023-04-25T01:39:28;98068.31;;;13.37;100.00
18275;BME280;19470;49.322;7.218;2023-04-25T01:41:55;98080.56;;;13.17;100.00
18275;BME280;19470;49.322;7.218;2023-04-25T01:44:21;98077.59;;;12.54;100.00
18275;BME280;19470;49.322;7.218;2023-04-25T01:46:48;98076.19;;;12.87;100.00
18275;BME280;19470;49.322;7.218;2023-04-25T01:49:14;98078.75;;;13.08;100.00
18275;BME280;19470;49.322;7.218;2023-04-25T01:51:41;98088.97;;;12.70;100.00
18275;BME280;19470;49.322;7.218;2023-04-25T01:54:08;98087.34;;;12.94;100.00
18275;BME280;19470;49.322;7.218;2023-04-25T01:56:38;98080.56;;;12.42;100.00
18275;BME280;19470;49.322;7.218;2023-04-25T01:59:04;98084.09;;;12.97;100.00
18275;BME280;19470;49.322;7.218;2023-04-25T02:01:31;98077.03;;;12.67;100.00
18275;BME280;19470;49.322;7.218;2023-04-25T02:03:58;98079.56;;;13.13;100.00
18275;BME280;19470;49.322;7.218;2023-04-25T02:06:25;98073.16;;;13.14;100.00
18275;BME280;19470;49.322;7.218;2023-04-25T02:08:51;98071.69;;;12.77;100.00
18275;BME280;19470;49.322;7.218;2023-04-25T02:11:18;98070.13;;;12.56;100.00
18275;BME280;19470;49.322;7.218;2023-04-25T02:13:45;98067.94;;;12.84;100.00
18275;BME280;19470;49.322;7.218;2023-04-25T02:16:12;98063.66;;;12.93;100.00
18275;BME280;19470;49.322;7.218;2023-04-25T02:18:39;98065.91;;;12.50;100.00
18275;BME280;19470;49.322;7.218;2023-04-25T02:21:05;98072.84;;;12.36;100.00
18275;BME280;19470;49.322;7.218;2023-04-25T02:23:32;98062.78;;;12.07;100.00
18275;BME280;19470;49.322;7.218;2023-04-25T02:25:58;98071.25;;;12.40;100.00
18275;BME280;19470;49.322;7.218;2023-04-25T02:28:25;98061.19;;;12.11;100.00
18275;BME280;19470;49.322;7.218;2023-04-25T02:30:53;98064.13;;;12.05;100.00
18275;BME280;19470;49.322;7.218;2023-04-25T02:33:19;98070.22;;;12.05;100.00
18275;BME280;19470;49.322;7.218;2023-04-25T02:35:46;98064.81;;;12.66;100.00
18275;BME280;19470;49.322;7.218;2023-04-25T02:38:13;98064.84;;;12.46;100.00
18275;BME280;19470;49.322;7.218;2023-04-25T02:40:39;98065.97;;;12.14;100.00
18275;BME280;19470;49.322;7.218;2023-04-25T02:43:06;98068.78;;;12.74;100.00
18275;BME280;19470;49.322;7.218;2023-04-25T02:45:33;98067.00;;;12.18;100.00
18275;BME280;19470;49.322;7.218;2023-04-25T02:48:02;98061.97;;;12.27;100.00
18275;BME280;19470;49.322;7.218;2023-04-25T02:50:28;98067.00;;;12.34;100.00
18275;BME280;19470;49.322;7.218;2023-04-25T02:52:56;98067.13;;;12.88;100.00
18275;BME280;19470;49.322;7.218;2023-04-25T02:55:23;98072.72;;;12.87;100.00
18275;BME280;19470;49.322;7.218;2023-04-25T02:57:49;98069.88;;;12.63;100.00
18275;BME280;19470;49.322;7.218;2023-04-25T03:00:16;98073.38;;;12.38;100.00
18275;BME280;19470;49.322;7.218;2023-04-25T03:02:42;98071.28;;;12.19;100.00
18275;BME280;19470;49.322;7.218;2023-04-25T03:05:10;98073.41;;;11.97;100.00
18275;BME280;19470;49.322;7.218;2023-04-25T03:07:36;98062.16;;;12.66;100.00
18275;BME280;19470;49.322;7.218;2023-04-25T03:10:05;98058.09;;;12.94;100.00
18275;BME280;19470;49.322;7.218;2023-04-25T03:12:32;98057.56;;;12.92;100.00
18275;BME280;19470;49.322;7.218;2023-04-25T03:14:58;98049.94;;;12.75;100.00
18275;BME280;19470;49.322;7.218;2023-04-25T03:17:25;98041.34;;;12.89;100.00
18275;BME280;19470;49.322;7.218;2023-04-25T03:19:51;98040.69;;;12.58;100.00
18275;BME280;19470;49.322;7.218;2023-04-25T03:22:19;98051.34;;;12.27;100.00
18275;BME280;19470;49.322;7.218;2023-04-25T03:24:46;98044.44;;;12.36;100.00
18275;BME280;19470;49.322;7.218;2023-04-25T03:27:12;98044.88;;;12.74;100.00
18275;BME280;19470;49.322;7.218;2023-04-25T03:29:39;98035.06;;;12.64;100.00
18275;BME280;19470;49.322;7.218;2023-04-25T03:32:05;98032.41;;;12.64;100.00
18275;BME280;19470;49.322;7.218;2023-04-25T03:34:32;98030.78;;;12.78;100.00
18275;BME280;19470;49.322;7.218;2023-04-25T03:36:59;98032.72;;;13.17;100.00
18275;BME280;19470;49.322;7.218;2023-04-25T03:39:27;98037.00;;;13.23;100.00
18275;BME280;19470;49.322;7.218;2023-04-25T03:41:53;98031.28;;;12.86;100.00
18275;BME280;19470;49.322;7.218;2023-04-25T03:44:20;98034.13;;;13.04;100.00
18275;BME280;19470;49.322;7.218;2023-04-25T03:46:46;98035.03;;;12.85;100.00
18275;BME280;19470;49.322;7.218;2023-04-25T03:49:13;98030.53;;;12.80;100.00
18275;BME280;19470;49.322;7.218;2023-04-25T03:51:51;98031.28;;;12.86;100.00
18275;BME280;19470;49.322;7.218;2023-04-25T03:54:18;98039.19;;;13.01;100.00
18275;BME280;19470;49.322;7.218;2023-04-25T03:56:46;98036.63;;;12.75;100.00
18275;BME280;19470;49.322;7.218;2023-04-25T03:59:13;98040.25;;;13.05;100.00
18275;BME280;19470;49.322;7.218;2023-04-25T04:01:40;98043.16;;;13.09;100.00
18275;BME280;19470;49.322;7.218;2023-04-25T04:04:06;98043.00;;;12.74;100.00
18275;BME280;19470;49.322;7.218;2023-04-25T04:06:33;98043.56;;;12.66;100.00
18275;BME280;19470;49.322;7.218;2023-04-25T04:08:59;98057.72;;;12.21;100.00
18275;BME280;19470;49.322;7.218;2023-04-25T04:11:26;98059.53;;;12.46;100.00
18275;BME280;19470;49.322;7.218;2023-04-25T04:13:54;98061.38;;;12.50;100.00
18275;BME280;19470;49.322;7.218;2023-04-25T04:16:20;98057.28;;;12.99;100.00
18275;BME280;19470;49.322;7.218;2023-04-25T04:18:46;98056.69;;;13.22;100.00
18275;BME280;19470;49.322;7.218;2023-04-25T04:21:13;98064.09;;;13.20;100.00
18275;BME280;19470;49.322;7.218;2023-04-25T04:23:40;98065.19;;;13.14;100.00
18275;BME280;19470;49.322;7.218;2023-04-25T04:26:06;98069.41;;;13.25;100.00
18275;BME280;19470;49.322;7.218;2023-04-25T04:28:33;98068.63;;;13.15;100.00
18275;BME280;19470;49.322;7.218;2023-04-25T04:31:02;98072.13;;;13.05;100.00
18275;BME280;19470;49.322;7.218;2023-04-25T04:33:29;98055.44;;;12.84;100.00
18275;BME280;19470;49.322;7.218;2023-04-25T04:35:56;98061.38;;;13.36;100.00
18275;BME280;19470;49.322;7.218;2023-04-25T04:38:23;98068.88;;;13.28;100.00
18275;BME280;19470;49.322;7.218;2023-04-25T04:40:53;98067.88;;;13.09;100.00
18275;BME280;19470;49.322;7.218;2023-04-25T04:43:20;98066.31;;;12.93;100.00
18275;BME280;19470;49.322;7.218;2023-04-25T04:45:48;98072.75;;;12.82;100.00
18275;BME280;19470;49.322;7.218;2023-04-25T04:48:16;98070.53;;;13.09;100.00
18275;BME280;19470;49.322;7.218;2023-04-25T04:50:43;98071.63;;;12.98;100.00
18275;BME280;19470;49.322;7.218;2023-04-25T04:53:11;98069.03;;;12.77;100.00
18275;BME280;19470;49.322;7.218;2023-04-25T04:55:37;98074.81;;;13.00;100.00
18275;BME280;19470;49.322;7.218;2023-04-25T04:58:04;98075.09;;;12.88;100.00
18275;BME280;19470;49.322;7.218;2023-04-25T05:00:30;98072.63;;;13.12;100.00
18275;BME280;19470;49.322;7.218;2023-04-25T05:02:58;98069.59;;;13.39;100.00
18275;BME280;19470;49.322;7.218;2023-04-25T05:05:26;98076.47;;;13.45;100.00
18275;BME280;19470;49.322;7.218;2023-04-25T05:07:52;98069.91;;;13.33;100.00
18275;BME280;19470;49.322;7.218;2023-04-25T05:10:19;98069.94;;;13.27;100.00
18275;BME280;19470;49.322;7.218;2023-04-25T05:12:46;98071.91;;;13.56;100.00
18275;BME280;19470;49.322;7.218;2023-04-25T05:15:12;98069.38;;;13.30;100.00
18275;BME280;19470;49.322;7.218;2023-04-25T05:21:04;98085.94;;;13.07;100.00
18275;BME280;19470;49.322;7.218;2023-04-25T05:23:30;98092.31;;;13.11;100.00
18275;BME280;19470;49.322;7.218;2023-04-25T05:25:58;98100.81;;;13.03;100.00
18275;BME280;19470;49.322;7.218;2023-04-25T05:28:25;98094.22;;;12.95;100.00
18275;BME280;19470;49.322;7.218;2023-04-25T05:30:51;98096.53;;;13.27;100.00
18275;BME280;19470;49.322;7.218;2023-04-25T05:33:18;98096.56;;;13.07;100.00
18275;BME280;19470;49.322;7.218;2023-04-25T05:35:51;98102.69;;;13.13;100.00
18275;BME280;19470;49.322;7.218;2023-04-25T05:38:19;98104.69;;;12.66;100.00
18275;BME280;19470;49.322;7.218;2023-04-25T05:40:45;98106.75;;;12.79;100.00
18275;BME280;19470;49.322;7.218;2023-04-25T05:43:12;98102.66;;;13.28;100.00
18275;BME280;19470;49.322;7.218;2023-04-25T05:45:44;98110.47;;;12.78;100.00
18275;BME280;19470;49.322;7.218;2023-04-25T05:48:11;98107.63;;;12.34;100.00
18275;BME280;19470;49.322;7.218;2023-04-25T05:50:38;98106.78;;;12.64;100.00
18275;BME280;19470;49.322;7.218;2023-04-25T05:53:04;98105.41;;;12.87;100.00
18275;BME280;19470;49.322;7.218;2023-04-25T05:55:32;98107.09;;;12.52;100.00
18275;BME280;19470;49.322;7.218;2023-04-25T05:57:59;98115.25;;;12.87;100.00
18275;BME280;19470;49.322;7.218;2023-04-25T06:00:25;98112.88;;;12.75;100.00
18275;BME280;19470;49.322;7.218;2023-04-25T06:02:52;98113.69;;;12.81;100.00
18275;BME280;19470;49.322;7.218;2023-04-25T06:05:20;98114.72;;;12.74;100.00
18275;BME280;19470;49.322;7.218;2023-04-25T06:07:46;98113.94;;;12.69;100.00
18275;BME280;19470;49.322;7.218;2023-04-25T06:10:13;98124.38;;;12.19;100.00
18275;BME280;19470;49.322;7.218;2023-04-25T06:12:41;98124.78;;;12.98;100.00
18275;BME280;19470;49.322;7.218;2023-04-25T06:15:08;98122.19;;;12.67;100.00
18275;BME280;19470;49.322;7.218;2023-04-25T06:17:35;98123.81;;;12.33;100.00
18275;BME280;19470;49.322;7.218;2023-04-25T06:20:02;98127.41;;;13.03;100.00
18275;BME280;19470;49.322;7.218;2023-04-25T06:22:29;98126.31;;;13.14;100.00
18275;BME280;19470;49.322;7.218;2023-04-25T06:24:56;98126.31;;;13.19;100.00
18275;BME280;19470;49.322;7.218;2023-04-25T06:27:24;98126.31;;;13.24;100.00
18275;BME280;19470;49.322;7.218;2023-04-25T06:29:51;98130.09;;;12.93;100.00
18275;BME280;19470;49.322;7.218;2023-04-25T06:32:18;98135.97;;;12.90;100.00
18275;BME280;19470;49.322;7.218;2023-04-25T06:34:44;98139.63;;;13.24;100.00
18275;BME280;19470;49.322;7.218;2023-04-25T06:37:11;98142.13;;;12.54;100.00
18275;BME280;19470;49.322;7.218;2023-04-25T06:39:38;98140.47;;;12.94;100.00
18275;BME280;19470;49.322;7.218;2023-04-25T06:42:04;98144.41;;;13.27;100.00
18275;BME280;19470;49.322;7.218;2023-04-25T06:44:31;98144.94;;;13.14;100.00
18275;BME280;19470;49.322;7.218;2023-04-25T06:46:58;98146.59;;;12.74;100.00
18275;BME280;19470;49.322;7.218;2023-04-25T06:49:25;98153.53;;;12.75;100.00
18275;BME280;19470;49.322;7.218;2023-04-25T06:51:51;98153.56;;;12.19;100.00
18275;BME280;19470;49.322;7.218;2023-04-25T06:54:18;98149.25;;;12.95;100.00
18275;BME280;19470;49.322;7.218;2023-04-25T06:56:44;98145.44;;;13.16;100.00
18275;BME280;19470;49.322;7.218;2023-04-25T06:59:11;98149.56;;;12.22;100.00
18275;BME280;19470;49.322;7.218;2023-04-25T07:01:37;98148.22;;;12.55;100.00
18275;BME280;19470;49.322;7.218;2023-04-25T07:04:05;98164.09;;;13.06;100.00
18275;BME280;19470;49.322;7.218;2023-04-25T07:06:32;98162.59;;;12.54;100.00
18275;BME280;19470;49.322;7.218;2023-04-25T07:08:58;98162.56;;;12.85;100.00
18275;BME280;19470;49.322;7.218;2023-04-25T07:11:25;98161.50;;;13.66;100.00
18275;BME280;19470;49.322;7.218;2023-04-25T07:13:51;98159.03;;;13.10;100.00
18275;BME280;19470;49.322;7.218;2023-04-25T07:16:18;98167.41;;;14.02;100.00
18275;BME280;19470;49.322;7.218;2023-04-25T07:18:44;98167.53;;;14.21;100.00
18275;BME280;19470;49.322;7.218;2023-04-25T07:21:12;98168.13;;;14.18;100.00
18275;BME280;19470;49.322;7.218;2023-04-25T07:23:38;98163.53;;;13.24;100.00
18275;BME280;19470;49.322;7.218;2023-04-25T07:26:06;98159.00;;;13.85;100.00
18275;BME280;19470;49.322;7.218;2023-04-25T07:28:32;98168.69;;;14.54;100.00
18275;BME280;19470;49.322;7.218;2023-04-25T07:30:59;98164.16;;;15.07;100.00
18275;BME280;19470;49.322;7.218;2023-04-25T07:33:25;98176.75;;;13.45;100.00
18275;BME280;19470;49.322;7.218;2023-04-25T07:35:52;98178.31;;;14.79;100.00
18275;BME280;19470;49.322;7.218;2023-04-25T07:38:19;98186.69;;;13.89;100.00
18275;BME280;19470;49.322;7.218;2023-04-25T07:40:47;98185.84;;;14.32;99.94
18275;BME280;19470;49.322;7.218;2023-04-25T07:43:13;98194.47;;;15.17;99.05
18275;BME280;19470;49.322;7.218;2023-04-25T07:45:41;98187.69;;;13.98;100.00
18275;BME280;19470;49.322;7.218;2023-04-25T07:48:08;98193.06;;;13.82;100.00
18275;BME280;19470;49.322;7.218;2023-04-25T07:50:35;98192.06;;;13.78;100.00
18275;BME280;19470;49.322;7.218;2023-04-25T07:53:01;98200.25;;;13.87;100.00
18275;BME280;19470;49.322;7.218;2023-04-25T07:55:29;98193.88;;;12.88;100.00
18275;BME280;19470;49.322;7.218;2023-04-25T07:57:56;98199.88;;;13.49;100.00
18275;BME280;19470;49.322;7.218;2023-04-25T08:00:22;98195.44;;;13.94;99.73
18275;BME280;19470;49.322;7.218;2023-04-25T08:02:49;98201.84;;;13.83;100.00
18275;BME280;19470;49.322;7.218;2023-04-25T08:05:16;98211.69;;;13.88;100.00
18275;BME280;19470;49.322;7.218;2023-04-25T08:07:43;98218.00;;;14.02;100.00
18275;BME280;19470;49.322;7.218;2023-04-25T08:10:09;98217.81;;;14.32;100.00
18275;BME280;19470;49.322;7.218;2023-04-25T08:12:37;98217.38;;;14.15;100.00
18275;BME280;19470;49.322;7.218;2023-04-25T08:15:05;98222.56;;;13.06;100.00
18275;BME280;19470;49.322;7.218;2023-04-25T08:17:32;98233.31;;;13.76;100.00
18275;BME280;19470;49.322;7.218;2023-04-25T08:19:58;98226.16;;;13.66;100.00
18275;BME280;19470;49.322;7.218;2023-04-25T08:22:25;98228.88;;;13.51;100.00
18275;BME280;19470;49.322;7.218;2023-04-25T08:24:51;98233.25;;;13.86;100.00
18275;BME280;19470;49.322;7.218;2023-04-25T08:27:18;98232.00;;;13.68;100.00
18275;BME280;19470;49.322;7.218;2023-04-25T08:29:47;98240.25;;;13.67;100.00
18275;BME280;19470;49.322;7.218;2023-04-25T08:32:14;98244.00;;;13.61;100.00
18275;BME280;19470;49.322;7.218;2023-04-25T08:34:40;98251.06;;;13.91;100.00
18275;BME280;19470;49.322;7.218;2023-04-25T08:37:08;98246.41;;;13.62;100.00
18275;BME280;19470;49.322;7.218;2023-04-25T08:39:36;98244.63;;;13.97;100.00
18275;BME280;19470;49.322;7.218;2023-04-25T08:42:05;98257.06;;;14.61;99.56
18275;BME280;19470;49.322;7.218;2023-04-25T08:44:33;98253.25;;;15.06;99.05
18275;BME280;19470;49.322;7.218;2023-04-25T08:47:02;98263.44;;;14.99;98.80
18275;BME280;19470;49.322;7.218;2023-04-25T08:49:29;98263.28;;;13.97;98.13
18275;BME280;19470;49.322;7.218;2023-04-25T08:51:59;98267.97;;;14.65;97.42
18275;BME280;19470;49.322;7.218;2023-04-25T08:54:27;98268.56;;;14.91;96.29
18275;BME280;19470;49.322;7.218;2023-04-25T08:56:56;98268.47;;;14.67;100.00
18275;BME280;19470;49.322;7.218;2023-04-25T08:59:23;98275.38;;;15.07;98.72
18275;BME280;19470;49.322;7.218;2023-04-25T09:01:50;98282.41;;;14.59;98.92
18275;BME280;19470;49.322;7.218;2023-04-25T09:04:18;98295.16;;;14.62;100.00
18275;BME280;19470;49.322;7.218;2023-04-25T09:06:45;98301.25;;;14.67;96.33
18275;BME280;19470;49.322;7.218;2023-04-25T09:09:12;98317.00;;;14.09;96.74
18275;BME280;19470;49.322;7.218;2023-04-25T09:11:39;98312.41;;;12.78;100.00
18275;BME280;19470;49.322;7.218;2023-04-25T09:14:12;98319.34;;;13.30;100.00
18275;BME280;19470;49.322;7.218;2023-04-25T09:16:59;98339.00;;;13.60;100.00
18275;BME280;19470;49.322;7.218;2023-04-25T09:19:28;98330.50;;;12.87;100.00
18275;BME280;19470;49.322;7.218;2023-04-25T09:21:56;98341.13;;;12.92;100.00
18275;BME280;19470;49.322;7.218;2023-04-25T09:24:34;98341.91;;;12.72;100.00
18275;BME280;19470;49.322;7.218;2023-04-25T09:27:03;98352.38;;;12.16;100.00
18275;BME280;19470;49.322;7.218;2023-04-25T09:29:30;98349.66;;;12.06;100.00
18275;BME280;19470;49.322;7.218;2023-04-25T09:32:17;98349.00;;;12.51;100.00
18275;BME280;19470;49.322;7.218;2023-04-25T09:34:47;98344.34;;;13.40;100.00
18275;BME280;19470;49.322;7.218;2023-04-25T09:37:18;98349.66;;;12.99;100.00
18275;BME280;19470;49.322;7.218;2023-04-25T09:39:46;98344.59;;;13.18;100.00
18275;BME280;19470;49.322;7.218;2023-04-25T09:42:13;98355.25;;;13.23;100.00
18275;BME280;19470;49.322;7.218;2023-04-25T09:44:42;98358.66;;;13.79;100.00
18275;BME280;19470;49.322;7.218;2023-04-25T09:47:10;98347.97;;;14.99;100.00
18275;BME280;19470;49.322;7.218;2023-04-25T09:49:39;98362.06;;;15.33;99.11
18275;BME280;19470;49.322;7.218;2023-04-25T09:52:08;98361.31;;;14.94;94.55
18275;BME280;19470;49.322;7.218;2023-04-25T09:54:35;98361.44;;;14.19;91.99
18275;BME280;19470;49.322;7.218;2023-04-25T09:57:09;98373.47;;;15.15;96.19
18275;BME280;19470;49.322;7.218;2023-04-25T09:59:38;98376.50;;;13.59;100.00
18275;BME280;19470;49.322;7.218;2023-04-25T10:02:06;98382.66;;;14.39;98.28
18275;BME280;19470;49.322;7.218;2023-04-25T10:04:34;98390.50;;;14.75;100.00
18275;BME280;19470;49.322;7.218;2023-04-25T10:07:01;98389.38;;;14.86;100.00
18275;BME280;19470;49.322;7.218;2023-04-25T10:09:32;98390.78;;;14.03;100.00
18275;BME280;19470;49.322;7.218;2023-04-25T10:11:59;98390.06;;;13.72;98.75
18275;BME280;19470;49.322;7.218;2023-04-25T10:14:26;98389.03;;;13.38;98.05
18275;BME280;19470;49.322;7.218;2023-04-25T10:16:55;98391.59;;;14.04;99.77
18275;BME280;19470;49.322;7.218;2023-04-25T10:19:24;98388.25;;;14.43;97.13
18275;BME280;19470;49.322;7.218;2023-04-25T10:21:52;98388.72;;;15.04;97.54
18275;BME280;19470;49.322;7.218;2023-04-25T10:24:20;98386.09;;;15.33;97.00
18275;BME280;19470;49.322;7.218;2023-04-25T10:26:49;98387.22;;;15.27;91.02
18275;BME280;19470;49.322;7.218;2023-04-25T10:29:21;98380.69;;;16.88;89.45
18275;BME280;19470;49.322;7.218;2023-04-25T10:31:49;98381.81;;;18.26;82.63
18275;BME280;19470;49.322;7.218;2023-04-25T10:34:16;98382.69;;;18.99;73.42
18275;BME280;19470;49.322;7.218;2023-04-25T10:36:42;98376.25;;;19.76;71.97
18275;BME280;19470;49.322;7.218;2023-04-25T10:39:22;98376.97;;;19.99;70.55
18275;BME280;19470;49.322;7.218;2023-04-25T10:41:55;98376.69;;;19.69;77.53
18275;BME280;19470;49.322;7.218;2023-04-25T10:44:22;98366.81;;;22.21;68.46
18275;BME280;19470;49.322;7.218;2023-04-25T10:46:48;98374.88;;;20.35;68.76
18275;BME280;19470;49.322;7.218;2023-04-25T10:49:32;98367.69;;;20.62;71.46
18275;BME280;19470;49.322;7.218;2023-04-25T10:52:13;98382.16;;;18.60;75.96
18275;BME280;19470;49.322;7.218;2023-04-25T10:54:41;98385.19;;;17.57;74.43
18275;BME280;19470;49.322;7.218;2023-04-25T10:57:26;98391.75;;;18.11;76.85
18275;BME280;19470;49.322;7.218;2023-04-25T10:59:52;98391.31;;;16.74;79.50
18275;BME280;19470;49.322;7.218;2023-04-25T11:02:19;98394.81;;;16.69;82.09
18275;BME280;19470;49.322;7.218;2023-04-25T11:04:45;98393.41;;;16.77;85.27
18275;BME280;19470;49.322;7.218;2023-04-25T11:07:19;98386.97;;;17.95;75.62
18275;BME280;19470;49.322;7.218;2023-04-25T11:09:49;98386.97;;;19.67;67.92
18275;BME280;19470;49.322;7.218;2023-04-25T11:12:17;98378.72;;;20.43;62.01
18275;BME280;19470;49.322;7.218;2023-04-25T11:14:44;98381.22;;;18.15;65.27
18275;BME280;19470;49.322;7.218;2023-04-25T11:17:10;98376.16;;;19.89;59.03
18275;BME280;19470;49.322;7.218;2023-04-25T11:19:37;98371.47;;;19.19;64.79
18275;BME280;19470;49.322;7.218;2023-04-25T11:22:03;98374.06;;;18.38;69.51
18275;BME280;19470;49.322;7.218;2023-04-25T11:24:32;98374.63;;;18.99;67.86
18275;BME280;19470;49.322;7.218;2023-04-25T11:26:59;98372.16;;;19.02;65.91
18275;BME280;19470;49.322;7.218;2023-04-25T11:29:29;98376.63;;;18.02;68.90
18275;BME280;19470;49.322;7.218;2023-04-25T11:31:56;98375.66;;;17.51;68.20
18275;BME280;19470;49.322;7.218;2023-04-25T11:34:23;98376.63;;;18.29;70.77
18275;BME280;19470;49.322;7.218;2023-04-25T11:36:51;98375.94;;;17.82;69.73
18275;BME280;19470;49.322;7.218;2023-04-25T11:39:18;98386.19;;;18.35;68.62
18275;BME280;19470;49.322;7.218;2023-04-25T11:41:44;98379.50;;;18.74;70.21
18275;BME280;19470;49.322;7.218;2023-04-25T11:44:11;98385.81;;;17.35;71.63
18275;BME280;19470;49.322;7.218;2023-04-25T11:46:39;98375.78;;;18.84;67.59
18275;BME280;19470;49.322;7.218;2023-04-25T11:49:06;98384.16;;;18.55;67.35
18275;BME280;19470;49.322;7.218;2023-04-25T11:51:38;98387.88;;;18.18;69.20
18275;BME280;19470;49.322;7.218;2023-04-25T11:54:05;98392.13;;;18.05;68.92
18275;BME280;19470;49.322;7.218;2023-04-25T11:56:31;98393.63;;;17.83;70.94
18275;BME280;19470;49.322;7.218;2023-04-25T11:59:00;98394.41;;;18.25;68.83
18275;BME280;19470;49.322;7.218;2023-04-25T12:01:28;98394.28;;;18.72;67.16
18275;BME280;19470;49.322;7.218;2023-04-25T12:03:56;98390.38;;;19.36;65.01
18275;BME280;19470;49.322;7.218;2023-04-25T12:06:26;98385.41;;;21.50;58.82
18275;BME280;19470;49.322;7.218;2023-04-25T12:09:00;98385.72;;;21.57;56.02
18275;BME280;19470;49.322;7.218;2023-04-25T12:11:29;98393.84;;;21.22;52.91
18275;BME280;19470;49.322;7.218;2023-04-25T12:13:56;98386.09;;;20.95;56.27
18275;BME280;19470;49.322;7.218;2023-04-25T12:16:27;98374.03;;;21.35;49.33
18275;BME280;19470;49.322;7.218;2023-04-25T12:18:53;98367.00;;;22.07;54.22
18275;BME280;19470;49.322;7.218;2023-04-25T12:21:23;98372.41;;;22.87;51.58
18275;BME280;19470;49.322;7.218;2023-04-25T12:23:50;98377.03;;;23.98;49.49
18275;BME280;19470;49.322;7.218;2023-04-25T12:26:18;98390.50;;;21.98;53.15
18275;BME280;19470;49.322;7.218;2023-04-25T12:28:45;98379.94;;;23.69;49.25
18275;BME280;19470;49.322;7.218;2023-04-25T12:31:12;98377.06;;;24.47;44.40
18275;BME280;19470;49.322;7.218;2023-04-25T12:33:40;98378.41;;;24.05;44.56
18275;BME280;19470;49.322;7.218;2023-04-25T12:36:08;98389.56;;;19.58;53.23
18275;BME280;19470;49.322;7.218;2023-04-25T12:38:39;98386.47;;;19.42;54.54
18275;BME280;19470;49.322;7.218;2023-04-25T12:41:06;98399.72;;;19.39;54.40
18275;BME280;19470;49.322;7.218;2023-04-25T12:43:32;98406.22;;;19.91;53.69
18275;BME280;19470;49.322;7.218;2023-04-25T12:45:59;98411.59;;;19.24;53.96
18275;BME280;19470;49.322;7.218;2023-04-25T12:48:25;98398.94;;;19.16;55.29
18275;BME280;19470;49.322;7.218;2023-04-25T12:50:52;98410.50;;;19.03;56.19
18275;BME280;19470;49.322;7.218;2023-04-25T12:53:19;98404.78;;;19.18;58.40
18275;BME280;19470;49.322;7.218;2023-04-25T12:55:48;98415.28;;;17.17;58.54
18275;BME280;19470;49.322;7.218;2023-04-25T12:58:16;98419.97;;;17.44;59.79